createdAt,value
2016-04-07T00:00:33.901Z,8.1
2016-04-07T00:01:33.871Z,8.1
2016-04-07T00:02:33.780Z,8.24
2016-04-07T00:03:33.736Z,8.27
2016-04-07T00:04:33.692Z,8.2
2016-04-07T00:05:33.616Z,8.12
2016-04-07T00:06:33.572Z,8.23
2016-04-07T00:07:33.528Z,8.3
2016-04-07T00:08:33.469Z,8.26
2016-04-07T00:09:33.408Z,8.26
2016-04-07T00:10:33.349Z,8.31
2016-04-07T00:11:33.320Z,8.28
2016-04-07T00:12:33.245Z,8.24
2016-04-07T00:13:33.200Z,8.1
2016-04-07T00:14:33.157Z,7.98
2016-04-07T00:15:33.080Z,8.06
2016-04-07T00:16:33.061Z,8.13
2016-04-07T00:17:33.045Z,8.06
2016-04-07T00:18:33.045Z,7.9
2016-04-07T00:19:33.045Z,8.13
2016-04-07T00:20:33.045Z,7.88
2016-04-07T00:21:32.998Z,8
2016-04-07T00:22:32.970Z,8.03
2016-04-07T00:23:33.035Z,8.01
2016-04-07T00:24:32.881Z,7.9
2016-04-07T00:25:32.838Z,7.87
2016-04-07T00:26:32.804Z,7.83
2016-04-07T00:27:32.765Z,7.93
2016-04-07T00:28:32.711Z,7.91
2016-04-07T00:29:32.674Z,7.9
2016-04-07T00:30:32.603Z,8.01
2016-04-07T00:31:32.563Z,8
2016-04-07T00:32:32.521Z,8.05
2016-04-07T00:33:32.462Z,7.95
2016-04-07T00:34:32.404Z,8.01
2016-04-07T00:35:32.362Z,7.95
2016-04-07T00:36:32.319Z,8.03
2016-04-07T00:37:32.261Z,8.1
2016-04-07T00:38:32.264Z,7.97
2016-04-07T00:39:32.158Z,8.09
2016-04-07T00:40:32.083Z,7.88
2016-04-07T00:41:32.056Z,7.77
2016-04-07T00:42:32.011Z,7.66
2016-04-07T00:43:31.921Z,7.5
2016-04-07T00:44:31.877Z,7.38
2016-04-07T00:45:31.833Z,7.28
2016-04-07T00:46:31.790Z,7.29
2016-04-07T00:47:31.714Z,7.31
2016-04-07T00:48:31.684Z,7.47
2016-04-07T00:49:31.625Z,7.63
2016-04-07T00:50:31.565Z,7.8
2016-04-07T00:51:31.521Z,7.69
2016-04-07T00:52:31.461Z,7.54
2016-04-07T00:53:31.448Z,7.4
2016-04-07T00:54:31.342Z,7.48
2016-04-07T00:55:31.298Z,7.53
2016-04-07T00:56:31.222Z,7.7
2016-04-07T00:57:31.178Z,7.6
2016-04-07T00:58:31.119Z,7.47
2016-04-07T00:59:31.089Z,7.42
2016-04-07T01:00:31.014Z,7.28
2016-04-07T01:01:30.970Z,7.23
2016-04-07T01:02:30.926Z,7.51
2016-04-07T01:03:30.882Z,7.28
2016-04-07T01:04:30.791Z,7.42
2016-04-07T01:05:30.794Z,7.24
2016-04-07T01:06:30.703Z,7.29
2016-04-07T01:07:30.643Z,7.13
2016-04-07T01:08:30.661Z,7.24
2016-04-07T01:09:30.539Z,7.25
2016-04-07T01:10:30.479Z,7.06
2016-04-07T01:11:30.419Z,7.07
2016-04-07T01:12:30.375Z,7.13
2016-04-07T01:13:30.330Z,7.06
2016-04-07T01:14:30.255Z,6.97
2016-04-07T01:15:30.227Z,6.93
2016-04-07T01:16:30.151Z,7.03
2016-04-07T01:17:30.106Z,6.99
2016-04-07T01:18:30.031Z,6.96
2016-04-07T01:19:29.971Z,7.13
2016-04-07T01:20:29.959Z,7.06
2016-04-07T01:21:29.899Z,7.2
2016-04-07T01:22:29.854Z,7.18
2016-04-07T01:23:29.826Z,7.13
2016-04-07T01:24:29.719Z,7.2
2016-04-07T01:25:29.659Z,7.17
2016-04-07T01:26:29.600Z,7.2
2016-04-07T01:27:29.556Z,7.18
2016-04-07T01:28:29.527Z,7.17
2016-04-07T01:29:29.436Z,7.32
2016-04-07T01:30:29.392Z,7.33
2016-04-07T01:31:29.347Z,7.38
2016-04-07T01:32:29.288Z,7.2
2016-04-07T01:33:29.228Z,7.24
2016-04-07T01:34:29.183Z,7.43
2016-04-07T01:35:29.139Z,7.45
2016-04-07T01:36:29.064Z,7.57
2016-04-07T01:37:29.020Z,7.61
2016-04-07T01:38:28.961Z,7.63
2016-04-07T01:39:28.932Z,7.75
2016-04-07T01:40:28.841Z,7.76
2016-04-07T01:41:28.796Z,7.77
2016-04-07T01:42:28.752Z,7.76
2016-04-07T01:43:28.708Z,7.66
2016-04-07T01:44:28.649Z,7.63
2016-04-07T01:45:28.588Z,7.6
2016-04-07T01:46:28.529Z,7.43
2016-04-07T01:47:28.468Z,7.45
2016-04-07T01:48:28.409Z,7.29
2016-04-07T01:49:28.365Z,7.4
2016-04-07T01:50:28.337Z,7.31
2016-04-07T01:51:28.261Z,7.35
2016-04-07T01:52:28.201Z,7.39
2016-04-07T01:53:28.157Z,7.24
2016-04-07T01:54:28.097Z,7.39
2016-04-07T01:55:28.037Z,7.23
2016-04-07T01:56:27.837Z,7.06
2016-04-07T01:57:27.933Z,7.03
2016-04-07T01:58:27.873Z,7
2016-04-07T01:59:27.813Z,7.15
2016-04-07T02:00:27.785Z,7.18
2016-04-07T02:01:27.725Z,7.2
2016-04-07T02:02:27.666Z,7.2
2016-04-07T02:03:27.605Z,7.18
2016-04-07T02:04:27.561Z,7.25
2016-04-07T02:05:27.533Z,7.31
2016-04-07T02:06:27.441Z,7.2
2016-04-07T02:07:27.382Z,7.23
2016-04-07T02:08:27.322Z,7.25
2016-04-07T02:09:27.278Z,7.21
2016-04-07T02:10:27.234Z,7.15
2016-04-07T02:11:27.190Z,7.11
2016-04-07T02:12:27.129Z,7.13
2016-04-07T02:13:27.071Z,7.02
2016-04-07T02:14:27.010Z,6.85
2016-04-07T02:15:26.966Z,6.84
2016-04-07T02:16:26.907Z,6.95
2016-04-07T02:17:26.862Z,7.11
2016-04-07T02:18:26.787Z,7.17
2016-04-07T02:19:26.743Z,7
2016-04-07T02:20:26.682Z,6.93
2016-04-07T02:21:26.638Z,6.89
2016-04-07T02:22:26.579Z,6.99
2016-04-07T02:23:26.518Z,6.93
2016-04-07T02:24:26.459Z,7.13
2016-04-07T02:25:26.431Z,7.03
2016-04-07T02:26:26.371Z,7
2016-04-07T02:27:26.311Z,7.1
2016-04-07T02:28:26.251Z,7.03
2016-04-07T02:29:26.192Z,7.03
2016-04-07T02:30:26.148Z,7.2
2016-04-07T02:31:26.103Z,7.05
2016-04-07T02:32:26.042Z,7.11
2016-04-07T02:33:25.967Z,7.25
2016-04-07T02:34:25.955Z,7.28
2016-04-07T02:35:25.864Z,7.32
2016-04-07T02:36:25.820Z,7.31
2016-04-07T02:37:25.775Z,7.18
2016-04-07T02:38:25.715Z,7.23
2016-04-07T02:39:25.655Z,7.33
2016-04-07T02:40:25.611Z,7.23
2016-04-07T02:41:25.551Z,7.31
2016-04-07T02:42:25.491Z,7.23
2016-04-07T02:43:25.432Z,7.25
2016-04-07T02:44:25.372Z,7.18
2016-04-07T02:45:25.359Z,7.17
2016-04-07T02:46:25.268Z,7.29
2016-04-07T02:47:25.224Z,7.35
2016-04-07T02:48:25.165Z,7.45
2016-04-07T02:49:25.135Z,7.43
2016-04-07T02:50:25.076Z,7.54
2016-04-07T02:51:25.001Z,7.47
2016-04-07T02:52:24.971Z,7.48
2016-04-07T02:53:24.912Z,7.45
2016-04-07T02:54:24.837Z,7.51
2016-04-07T02:55:24.793Z,7.42
2016-04-07T02:56:24.732Z,7.4
2016-04-07T02:57:24.673Z,7.5
2016-04-07T02:58:24.644Z,7.5
2016-04-07T02:59:24.569Z,7.58
2016-04-07T03:00:24.509Z,7.47
2016-04-07T03:01:24.465Z,7.56
2016-04-07T03:02:24.405Z,7.73
2016-04-07T03:03:24.345Z,7.75
2016-04-07T03:04:24.317Z,7.91
2016-04-07T03:05:24.242Z,7.87
2016-04-07T03:06:24.181Z,7.94
2016-04-07T03:07:24.122Z,7.98
2016-04-07T03:08:24.109Z,7.95
2016-04-07T03:09:24.049Z,8
2016-04-07T03:10:23.989Z,7.95
2016-04-07T03:11:23.930Z,8.01
2016-04-07T03:12:23.870Z,7.9
2016-04-07T03:13:23.824Z,7.85
2016-04-07T03:14:23.749Z,7.85
2016-04-07T03:15:23.705Z,7.87
2016-04-07T03:16:23.646Z,7.8
2016-04-07T03:17:23.445Z,7.85
2016-04-07T03:18:23.541Z,7.9
2016-04-07T03:19:23.497Z,7.8
2016-04-07T03:20:23.454Z,7.69
2016-04-07T03:21:23.393Z,7.63
2016-04-07T03:22:23.349Z,7.87
2016-04-07T03:23:23.289Z,7.85
2016-04-07T03:24:23.229Z,7.85
2016-04-07T03:25:23.170Z,7.88
2016-04-07T03:26:23.110Z,7.87
2016-04-07T03:27:23.081Z,7.73
2016-04-07T03:28:22.990Z,7.67
2016-04-07T03:29:22.962Z,7.73
2016-04-07T03:30:22.902Z,7.6
2016-04-07T03:31:22.826Z,7.56
2016-04-07T03:32:22.783Z,7.56
2016-04-07T03:33:22.739Z,7.54
2016-04-07T03:34:22.709Z,7.58
2016-04-07T03:35:22.650Z,7.57
2016-04-07T03:36:22.575Z,7.61
2016-04-07T03:37:22.515Z,7.72
2016-04-07T03:38:22.470Z,7.79
2016-04-07T03:39:22.411Z,7.7
2016-04-07T03:40:22.430Z,7.6
2016-04-07T03:41:22.307Z,7.7
2016-04-07T03:42:22.247Z,7.73
2016-04-07T03:43:22.233Z,7.82
2016-04-07T03:44:22.144Z,7.83
2016-04-07T03:45:22.083Z,7.79
2016-04-07T03:46:22.039Z,7.61
2016-04-07T03:47:21.980Z,7.56
2016-04-07T03:48:21.918Z,7.5
2016-04-07T03:49:21.874Z,7.47
2016-04-07T03:50:21.815Z,7.47
2016-04-07T03:51:21.771Z,7.51
2016-04-07T03:52:21.726Z,7.61
2016-04-07T03:53:21.668Z,7.56
2016-04-07T03:54:21.624Z,7.6
2016-04-07T03:55:21.563Z,7.6
2016-04-07T03:56:21.487Z,7.54
2016-04-07T03:57:21.459Z,7.47
2016-04-07T03:58:21.243Z,7.42
2016-04-07T03:59:21.355Z,7.32
2016-04-07T04:00:21.311Z,7.32
2016-04-07T04:01:21.236Z,7.33
2016-04-07T04:02:21.175Z,7.23
2016-04-07T04:03:21.131Z,7.32
2016-04-07T04:04:21.072Z,7.28
2016-04-07T04:05:21.012Z,7.39
2016-04-07T04:06:20.952Z,7.33
2016-04-07T04:07:20.892Z,7.38
2016-04-07T04:08:20.848Z,7.17
2016-04-07T04:09:20.804Z,7.15
2016-04-07T04:10:20.760Z,7
2016-04-07T04:11:20.684Z,7.2
2016-04-07T04:12:20.641Z,7.11
2016-04-07T04:13:20.580Z,7.1
2016-04-07T04:14:20.536Z,7
2016-04-07T04:15:20.477Z,7.18
2016-04-07T04:16:20.416Z,7.15
2016-04-07T04:17:20.357Z,7.07
2016-04-07T04:18:20.297Z,7.15
2016-04-07T04:19:20.269Z,7.38
2016-04-07T04:20:20.193Z,7.36
2016-04-07T04:21:20.149Z,7.36
2016-04-07T04:22:20.105Z,7.39
2016-04-07T04:23:20.029Z,7.18
2016-04-07T04:24:19.985Z,7.05
2016-04-07T04:25:19.926Z,7
2016-04-07T04:26:19.881Z,6.95
2016-04-07T04:27:19.837Z,6.84
2016-04-07T04:28:19.777Z,6.82
2016-04-07T04:29:19.702Z,6.84
2016-04-07T04:30:19.641Z,6.85
2016-04-07T04:31:19.597Z,6.89
2016-04-07T04:32:19.553Z,7.03
2016-04-07T04:33:19.525Z,7.18
2016-04-07T04:34:19.434Z,7.15
2016-04-07T04:35:19.389Z,7.17
2016-04-07T04:36:19.345Z,7.28
2016-04-07T04:37:19.269Z,7.25
2016-04-07T04:38:19.225Z,7.29
2016-04-07T04:39:19.150Z,7.15
2016-04-07T04:40:19.184Z,7.21
2016-04-07T04:41:19.047Z,7.31
2016-04-07T04:42:18.830Z,7.28
2016-04-07T04:43:18.957Z,7.29
2016-04-07T04:44:18.897Z,7.17
2016-04-07T04:45:18.822Z,7.24
2016-04-07T04:46:18.778Z,7.35
2016-04-07T04:47:18.734Z,7.36
2016-04-07T04:48:18.674Z,7.36
2016-04-07T04:49:18.615Z,7.33
2016-04-07T04:50:18.571Z,7.36
2016-04-07T04:51:18.510Z,7.43
2016-04-07T04:52:18.451Z,7.38
2016-04-07T04:53:18.407Z,7.47
2016-04-07T04:54:18.347Z,7.39
2016-04-07T04:55:18.302Z,7.45
2016-04-07T04:56:18.243Z,7.5
2016-04-07T04:57:18.199Z,7.51
2016-04-07T04:58:18.154Z,7.54
2016-04-07T04:59:18.095Z,7.6
2016-04-07T05:00:18.034Z,7.67
2016-04-07T05:01:17.975Z,7.51
2016-04-07T05:02:17.931Z,7.7
2016-04-07T05:03:17.856Z,7.61
2016-04-07T05:04:17.811Z,7.79
2016-04-07T05:05:17.751Z,7.95
2016-04-07T05:06:17.707Z,8.08
2016-04-07T05:07:17.648Z,8.12
2016-04-07T05:08:17.603Z,8.13
2016-04-07T05:09:17.575Z,8.23
2016-04-07T05:10:17.483Z,8.31
2016-04-07T05:11:17.455Z,8.34
2016-04-07T05:12:17.380Z,8.27
2016-04-07T05:13:17.319Z,8.3
2016-04-07T05:14:17.276Z,8.41
2016-04-07T05:15:17.216Z,8.38
2016-04-07T05:16:17.156Z,8.55
2016-04-07T05:17:17.111Z,8.58
2016-04-07T05:18:17.068Z,8.61
2016-04-07T05:19:16.992Z,8.61
2016-04-07T05:20:16.963Z,8.58
2016-04-07T05:21:16.888Z,8.6
2016-04-07T05:22:16.860Z,8.66
2016-04-07T05:23:16.784Z,8.61
2016-04-07T05:24:16.802Z,8.64
2016-04-07T05:25:16.695Z,8.76
2016-04-07T05:26:16.635Z,8.85
2016-04-07T05:27:16.576Z,8.79
2016-04-07T05:28:16.516Z,8.87
2016-04-07T05:29:16.488Z,8.84
2016-04-07T05:30:16.412Z,8.92
2016-04-07T05:31:16.368Z,8.92
2016-04-07T05:32:16.308Z,8.88
2016-04-07T05:33:16.248Z,8.95
2016-04-07T05:34:16.220Z,8.91
2016-04-07T05:35:16.145Z,8.97
2016-04-07T05:36:16.116Z,8.92
2016-04-07T05:37:16.040Z,9.02
2016-04-07T05:38:16.028Z,9.06
2016-04-07T05:39:16.031Z,9.14
2016-04-07T05:40:15.877Z,9.11
2016-04-07T05:41:15.817Z,9.04
2016-04-07T05:42:15.772Z,9.14
2016-04-07T05:43:15.728Z,9.03
2016-04-07T05:44:15.669Z,9.11
2016-04-07T05:45:15.609Z,9.1
2016-04-07T05:46:15.596Z,9.25
2016-04-07T05:47:15.505Z,9.21
2016-04-07T05:48:15.461Z,9.25
2016-04-07T05:49:15.417Z,9.19
2016-04-07T05:50:15.357Z,9.23
2016-04-07T05:51:15.297Z,9.28
2016-04-07T05:52:15.253Z,9.31
2016-04-07T05:53:15.193Z,9.36
2016-04-07T05:54:15.211Z,9.26
2016-04-07T05:55:15.074Z,9.32
2016-04-07T05:56:15.030Z,9.39
2016-04-07T05:57:14.969Z,9.36
2016-04-07T05:58:14.925Z,9.39
2016-04-07T05:59:14.849Z,9.34
2016-04-07T06:00:14.821Z,9.34
2016-04-07T06:01:14.761Z,9.39
2016-04-07T06:02:14.701Z,9.37
2016-04-07T06:03:14.673Z,9.47
2016-04-07T06:04:14.801Z,9.5
2016-04-07T06:05:14.553Z,9.4
2016-04-07T06:06:14.493Z,9.46
2016-04-07T06:07:14.449Z,9.39
2016-04-07T06:08:14.373Z,9.4
2016-04-07T06:09:14.663Z,9.47
2016-04-07T06:10:14.275Z,9.51
2016-04-07T06:11:14.215Z,9.51
2016-04-07T06:12:14.186Z,9.55
2016-04-07T06:13:14.127Z,9.56
2016-04-07T06:14:14.067Z,9.59
2016-04-07T06:15:14.007Z,9.56
2016-04-07T06:16:13.978Z,9.59
2016-04-07T06:17:13.747Z,9.66
2016-04-07T06:18:13.858Z,9.59
2016-04-07T06:19:13.815Z,9.65
2016-04-07T06:20:13.739Z,9.66
2016-04-07T06:21:13.696Z,9.68
2016-04-07T06:22:13.635Z,9.72
2016-04-07T06:23:13.576Z,9.73
2016-04-07T06:24:13.703Z,9.65
2016-04-07T06:25:13.487Z,9.73
2016-04-07T06:26:13.426Z,9.68
2016-04-07T06:27:13.398Z,9.73
2016-04-07T06:28:13.307Z,9.73
2016-04-07T06:29:13.263Z,9.68
2016-04-07T06:30:13.203Z,9.73
2016-04-07T06:31:13.159Z,9.72
2016-04-07T06:32:13.100Z,9.74
2016-04-07T06:33:13.055Z,9.77
2016-04-07T06:34:13.011Z,9.79
2016-04-07T06:35:12.951Z,9.79
2016-04-07T06:36:12.892Z,9.79
2016-04-07T06:37:12.847Z,9.79
2016-04-07T06:38:12.803Z,9.77
2016-04-07T06:39:12.743Z,9.86
2016-04-07T06:40:12.684Z,9.91
2016-04-07T06:41:12.670Z,9.82
2016-04-07T06:42:12.580Z,9.8
2016-04-07T06:43:12.520Z,9.77
2016-04-07T06:44:12.492Z,9.87
2016-04-07T06:45:12.431Z,9.92
2016-04-07T06:46:12.371Z,9.84
2016-04-07T06:47:12.327Z,9.86
2016-04-07T06:48:12.252Z,9.95
2016-04-07T06:49:12.192Z,9.98
2016-04-07T06:50:12.164Z,9.92
2016-04-07T06:51:12.104Z,9.99
2016-04-07T06:52:12.044Z,9.97
2016-04-07T06:53:11.984Z,9.98
2016-04-07T06:54:11.987Z,9.92
2016-04-07T06:55:11.895Z,9.92
2016-04-07T06:56:11.851Z,9.98
2016-04-07T06:57:11.776Z,9.98
2016-04-07T06:58:11.732Z,9.99
2016-04-07T06:59:11.704Z,10.09
2016-04-07T07:00:11.643Z,10.02
2016-04-07T07:01:11.584Z,10.05
2016-04-07T07:02:11.539Z,10.04
2016-04-07T07:03:11.495Z,10.13
2016-04-07T07:04:11.420Z,10.12
2016-04-07T07:05:11.376Z,10.07
2016-04-07T07:06:11.332Z,10.12
2016-04-07T07:07:11.272Z,10.13
2016-04-07T07:08:11.212Z,10.12
2016-04-07T07:09:11.200Z,10.1
2016-04-07T07:10:11.092Z,10.15
2016-04-07T07:11:11.033Z,10.13
2016-04-07T07:12:10.988Z,10.15
2016-04-07T07:13:10.944Z,10.12
2016-04-07T07:14:10.869Z,10.15
2016-04-07T07:15:10.825Z,10.17
2016-04-07T07:16:10.859Z,10.22
2016-04-07T07:17:15.392Z,10.22
2016-04-07T07:18:10.692Z,10.15
2016-04-07T07:19:10.616Z,10.28
2016-04-07T07:20:10.604Z,10.28
2016-04-07T07:21:10.497Z,10.22
2016-04-07T07:22:10.452Z,10.25
2016-04-07T07:23:10.408Z,10.35
2016-04-07T07:24:10.379Z,10.26
2016-04-07T07:25:10.304Z,10.28
2016-04-07T07:26:10.245Z,10.3
2016-04-07T07:27:10.201Z,10.33
2016-04-07T07:28:10.141Z,10.33
2016-04-07T07:29:10.081Z,10.3
2016-04-07T07:30:09.943Z,10.28
2016-04-07T07:31:09.992Z,10.28
2016-04-07T07:32:09.855Z,10.33
2016-04-07T07:33:09.863Z,10.34
2016-04-07T07:34:13.021Z,10.38
2016-04-07T07:35:09.759Z,10.41
2016-04-07T07:36:09.730Z,10.4
2016-04-07T07:37:09.655Z,10.41
2016-04-07T07:38:09.627Z,10.44
2016-04-07T07:39:09.567Z,10.49
2016-04-07T07:40:09.512Z,10.4
2016-04-07T07:41:09.467Z,10.46
2016-04-07T07:42:09.392Z,10.49
2016-04-07T07:43:09.286Z,10.41
2016-04-07T07:44:09.288Z,10.48
2016-04-07T07:45:09.244Z,10.44
2016-04-07T07:46:09.184Z,10.48
2016-04-07T07:47:09.125Z,10.38
2016-04-07T07:48:09.065Z,10.49
2016-04-07T07:49:09.036Z,10.49
2016-04-07T07:50:08.992Z,10.51
2016-04-07T07:51:08.900Z,10.46
2016-04-07T07:52:08.872Z,10.42
2016-04-07T07:53:08.827Z,10.54
2016-04-07T07:54:08.768Z,10.61
2016-04-07T07:55:08.724Z,10.54
2016-04-07T07:56:08.663Z,10.46
2016-04-07T07:57:08.604Z,10.42
2016-04-07T07:58:08.560Z,10.6
2016-04-07T07:59:08.501Z,10.42
2016-04-07T08:00:08.347Z,10.46
2016-04-07T08:01:08.396Z,10.46
2016-04-07T08:02:08.337Z,10.44
2016-04-07T08:03:08.324Z,10.57
2016-04-07T08:04:08.232Z,10.61
2016-04-07T08:05:08.188Z,10.67
2016-04-07T08:06:08.425Z,10.61
2016-04-07T08:07:08.068Z,10.71
2016-04-07T08:08:08.040Z,10.72
2016-04-07T08:09:07.981Z,10.82
2016-04-07T08:10:07.765Z,10.79
2016-04-07T08:11:07.876Z,10.72
2016-04-07T08:12:07.817Z,10.76
2016-04-07T08:13:07.756Z,10.76
2016-04-07T08:14:07.728Z,10.76
2016-04-07T08:15:07.653Z,10.9
2016-04-07T08:16:07.609Z,10.97
2016-04-07T08:17:07.550Z,10.96
2016-04-07T08:18:07.520Z,11
2016-04-07T08:19:07.461Z,10.92
2016-04-07T08:20:07.400Z,11
2016-04-07T08:21:07.388Z,10.93
2016-04-07T08:22:07.281Z,10.89
2016-04-07T08:23:07.236Z,10.84
2016-04-07T08:24:07.224Z,10.89
2016-04-07T08:25:07.132Z,10.96
2016-04-07T08:26:07.088Z,10.94
2016-04-07T08:27:07.044Z,10.86
2016-04-07T08:28:06.982Z,10.94
2016-04-07T08:29:06.922Z,10.96
2016-04-07T08:30:06.910Z,10.97
2016-04-07T08:31:06.835Z,10.99
2016-04-07T08:32:06.821Z,10.96
2016-04-07T08:33:06.730Z,10.93
2016-04-07T08:34:06.654Z,10.89
2016-04-07T08:35:06.626Z,10.84
2016-04-07T08:36:06.550Z,10.99
2016-04-07T08:37:06.507Z,11.04
2016-04-07T08:38:06.448Z,11.02
2016-04-07T08:39:06.403Z,11.11
2016-04-07T08:40:06.359Z,11.02
2016-04-07T08:41:06.299Z,10.99
2016-04-07T08:42:06.255Z,11.1
2016-04-07T08:43:06.179Z,11.12
2016-04-07T08:44:06.151Z,11.17
2016-04-07T08:45:06.122Z,11.17
2016-04-07T08:46:06.047Z,11.27
2016-04-07T08:47:05.988Z,11.26
2016-04-07T08:48:05.927Z,11.27
2016-04-07T08:49:05.883Z,11.3
2016-04-07T08:50:05.807Z,11.41
2016-04-07T08:51:05.779Z,11.5
2016-04-07T08:52:05.812Z,11.43
2016-04-07T08:53:05.690Z,11.47
2016-04-07T08:54:06.068Z,11.35
2016-04-07T08:55:05.571Z,11.45
2016-04-07T08:56:05.542Z,11.41
2016-04-07T08:57:05.467Z,11.45
2016-04-07T08:58:05.407Z,11.52
2016-04-07T08:59:05.363Z,11.59
2016-04-07T09:00:05.303Z,11.59
2016-04-07T09:01:05.259Z,11.51
2016-04-07T09:02:05.200Z,11.5
2016-04-07T09:03:05.156Z,11.6
2016-04-07T09:04:05.111Z,11.55
2016-04-07T09:05:05.051Z,11.57
2016-04-07T09:06:05.022Z,11.63
2016-04-07T09:07:04.947Z,11.72
2016-04-07T09:08:17.624Z,11.97
2016-04-07T09:09:04.843Z,11.86
2016-04-07T09:10:04.799Z,11.88
2016-04-07T09:11:04.755Z,11.8
2016-04-07T09:12:04.679Z,11.84
2016-04-07T09:13:04.636Z,11.8
2016-04-07T09:14:04.591Z,11.75
2016-04-07T09:15:04.532Z,11.73
2016-04-07T09:16:04.471Z,11.8
2016-04-07T09:17:04.427Z,11.75
2016-04-07T09:18:04.383Z,11.8
2016-04-07T09:19:04.323Z,11.87
2016-04-07T09:20:04.279Z,11.81
2016-04-07T09:21:04.218Z,11.81
2016-04-07T09:22:04.160Z,11.73
2016-04-07T09:23:04.139Z,11.69
2016-04-07T09:24:04.131Z,11.75
2016-04-07T09:25:04.139Z,11.81
2016-04-07T09:26:04.303Z,11.84
2016-04-07T09:27:04.076Z,11.75
2016-04-07T09:28:04.053Z,11.72
2016-04-07T09:29:04.008Z,11.8
2016-04-07T09:30:03.960Z,11.83
2016-04-07T09:31:03.930Z,11.88
2016-04-07T09:32:03.883Z,11.7
2016-04-07T09:33:03.831Z,11.72
2016-04-07T09:34:04.056Z,11.77
2016-04-07T09:35:03.782Z,11.8
2016-04-07T09:36:03.695Z,11.81
2016-04-07T09:37:03.641Z,11.84
2016-04-07T09:38:03.599Z,11.72
2016-04-07T09:39:03.557Z,11.7
2016-04-07T09:40:03.718Z,11.83
2016-04-07T09:41:03.458Z,11.83
2016-04-07T09:42:03.399Z,11.73
2016-04-07T09:43:03.356Z,11.83
2016-04-07T09:44:03.312Z,11.86
2016-04-07T09:45:03.473Z,11.91
2016-04-07T09:46:03.210Z,12
2016-04-07T09:47:03.135Z,11.95
2016-04-07T09:48:03.107Z,11.97
2016-04-07T09:49:03.047Z,12.02
2016-04-07T09:50:02.988Z,11.95
2016-04-07T09:51:02.959Z,11.94
2016-04-07T09:52:02.883Z,12.15
2016-04-07T09:53:02.839Z,12.13
2016-04-07T09:54:02.779Z,12.17
2016-04-07T09:55:02.782Z,12.24
2016-04-07T09:56:02.660Z,12.25
2016-04-07T09:57:02.616Z,12.25
2016-04-07T09:58:02.571Z,12.24
2016-04-07T09:59:02.527Z,12.15
2016-04-07T10:00:02.483Z,12.17
2016-04-07T10:01:02.407Z,12.09
2016-04-07T10:02:02.363Z,12.06
2016-04-07T10:03:02.162Z,12.12
2016-04-07T10:04:02.259Z,12.03
2016-04-07T10:05:02.215Z,12.18
2016-04-07T10:06:02.171Z,12.12
2016-04-07T10:07:01.377Z,12.24
2016-04-07T10:08:02.115Z,12.24
2016-04-07T10:09:02.022Z,12.39
2016-04-07T10:10:01.947Z,12.4
2016-04-07T10:11:01.887Z,12.47
2016-04-07T10:12:01.844Z,12.47
2016-04-07T10:13:01.767Z,12.61
2016-04-07T10:14:01.724Z,12.67
2016-04-07T10:15:01.711Z,12.68
2016-04-07T10:16:01.619Z,12.72
2016-04-07T10:17:01.592Z,12.85
2016-04-07T10:18:01.516Z,12.87
2016-04-07T10:19:01.488Z,12.7
2016-04-07T10:20:01.428Z,12.72
2016-04-07T10:21:01.368Z,12.75
2016-04-07T10:22:01.324Z,12.91
2016-04-07T10:23:01.263Z,12.93
2016-04-07T10:24:01.220Z,13.05
2016-04-07T10:25:01.254Z,13.09
2016-04-07T10:26:01.147Z,13.23
2016-04-07T10:27:01.072Z,13.09
2016-04-07T10:28:01.012Z,13.33
2016-04-07T10:29:00.968Z,13.15
2016-04-07T10:30:00.923Z,13.22
2016-04-07T10:31:00.863Z,13.18
2016-04-07T10:32:00.803Z,13.28
2016-04-07T10:33:00.775Z,13.23
2016-04-07T10:34:00.715Z,13.31
2016-04-07T10:35:00.640Z,13.18
2016-04-07T10:36:00.627Z,13.23
2016-04-07T10:37:00.567Z,13.25
2016-04-07T10:38:00.523Z,13.19
2016-04-07T10:39:00.447Z,13.22
2016-04-07T10:40:00.481Z,13.19
2016-04-07T10:41:00.358Z,13.2
2016-04-07T10:42:00.314Z,13.28
2016-04-07T10:43:00.270Z,13.2
2016-04-07T10:44:00.211Z,13.11
2016-04-07T10:45:00.558Z,13.19
2016-04-07T10:46:00.092Z,13.2
2016-04-07T10:47:00.031Z,13.22
2016-04-07T10:47:59.987Z,13.23
2016-04-07T10:48:59.959Z,13.22
2016-04-07T10:49:59.883Z,13.2
2016-04-07T10:50:59.855Z,13.23
2016-04-07T10:51:59.795Z,13.19
2016-04-07T10:52:59.751Z,13.05
2016-04-07T10:53:59.894Z,13.23
2016-04-07T10:54:59.678Z,13.09
2016-04-07T10:55:59.587Z,13.09
2016-04-07T10:56:59.543Z,13.19
2016-04-07T10:57:59.483Z,13.22
2016-04-07T10:58:59.438Z,13.23
2016-04-07T10:59:59.379Z,13.22
2016-04-07T11:00:59.334Z,13.19
2016-04-07T11:01:59.290Z,13.2
2016-04-07T11:02:59.262Z,13.23
2016-04-07T11:03:59.187Z,13.2
2016-04-07T11:04:59.158Z,13.19
2016-04-07T11:05:59.114Z,13.2
2016-04-07T11:06:59.054Z,13.22
2016-04-07T11:07:58.978Z,13.16
2016-04-07T11:08:58.918Z,13.23
2016-04-07T11:09:58.905Z,13.13
2016-04-07T11:10:58.830Z,13.22
2016-04-07T11:11:58.770Z,13.15
2016-04-07T11:12:58.726Z,13.09
2016-04-07T11:13:58.667Z,13.09
2016-04-07T11:14:58.607Z,13.28
2016-04-07T11:15:58.547Z,13.22
2016-04-07T11:16:58.722Z,13.09
2016-04-07T11:17:58.474Z,13.19
2016-04-07T11:18:58.414Z,13.15
2016-04-07T11:19:58.386Z,13.27
2016-04-07T11:20:58.326Z,13.22
2016-04-07T11:21:58.267Z,13.19
2016-04-07T11:22:58.222Z,13.23
2016-04-07T11:23:58.147Z,13.3
2016-04-07T11:24:58.133Z,13.27
2016-04-07T11:25:58.058Z,13.22
2016-04-07T11:26:58.013Z,13.3
2016-04-07T11:27:57.969Z,13.33
2016-04-07T11:28:57.910Z,13.28
2016-04-07T11:29:57.866Z,13.42
2016-04-07T11:30:57.807Z,13.25
2016-04-07T11:31:57.762Z,13.28
2016-04-07T11:32:57.718Z,13.19
2016-04-07T11:33:57.690Z,13.25
2016-04-07T11:34:57.598Z,13.25
2016-04-07T11:35:57.554Z,13.28
2016-04-07T11:36:57.526Z,13.27
2016-04-07T11:37:57.465Z,13.3
2016-04-07T11:38:57.421Z,13.28
2016-04-07T11:39:57.409Z,13.31
2016-04-07T11:40:57.365Z,13.15
2016-04-07T11:41:57.304Z,13.16
2016-04-07T11:42:57.198Z,13.25
2016-04-07T11:43:57.170Z,13.18
2016-04-07T11:44:57.156Z,13.18
2016-04-07T11:45:57.081Z,13.16
2016-04-07T11:46:57.037Z,13.11
2016-04-07T11:47:57.008Z,13.18
2016-04-07T11:48:56.948Z,13.18
2016-04-07T11:49:56.920Z,13.19
2016-04-07T11:50:56.813Z,13.01
2016-04-07T11:51:56.769Z,13
2016-04-07T11:52:56.756Z,13.01
2016-04-07T11:53:56.649Z,13.11
2016-04-07T11:54:56.699Z,12.97
2016-04-07T11:55:56.561Z,12.94
2016-04-07T11:56:56.502Z,12.86
2016-04-07T11:57:56.441Z,12.95
2016-04-07T11:58:56.428Z,12.93
2016-04-07T11:59:56.353Z,12.95
2016-04-07T12:00:56.277Z,12.98
2016-04-07T12:01:56.249Z,12.95
2016-04-07T12:02:56.189Z,12.87
2016-04-07T12:03:56.129Z,12.91
2016-04-07T12:04:56.085Z,12.67
2016-04-07T12:05:56.041Z,12.75
2016-04-07T12:06:55.996Z,12.91
2016-04-07T12:07:55.999Z,12.91
2016-04-07T12:08:55.893Z,12.9
2016-04-07T12:09:55.832Z,12.87
2016-04-07T12:10:55.773Z,12.82
2016-04-07T12:11:55.744Z,12.8
2016-04-07T12:12:55.747Z,12.65
2016-04-07T12:13:55.640Z,12.73
2016-04-07T12:14:55.596Z,12.79
2016-04-07T12:15:55.521Z,12.85
2016-04-07T12:16:55.508Z,12.7
2016-04-07T12:17:55.433Z,12.85
2016-04-07T12:18:55.356Z,12.9
2016-04-07T12:19:55.297Z,12.85
2016-04-07T12:20:55.253Z,12.9
2016-04-07T12:21:55.302Z,12.87
2016-04-07T12:22:55.149Z,12.85
2016-04-07T12:23:55.104Z,12.87
2016-04-07T12:24:55.029Z,12.87
2016-04-07T12:25:54.985Z,12.9
2016-04-07T12:26:54.925Z,12.9
2016-04-07T12:27:54.897Z,12.83
2016-04-07T12:28:54.821Z,12.91
2016-04-07T12:29:54.777Z,12.9
2016-04-07T12:30:54.733Z,12.85
2016-04-07T12:31:54.673Z,12.9
2016-04-07T12:32:54.613Z,12.95
2016-04-07T12:33:54.568Z,12.85
2016-04-07T12:34:54.524Z,12.86
2016-04-07T12:35:54.496Z,12.87
2016-04-07T12:36:54.437Z,12.87
2016-04-07T12:37:54.377Z,12.87
2016-04-07T12:38:53.582Z,12.91
2016-04-07T12:39:54.273Z,12.94
2016-04-07T12:40:54.322Z,12.98
2016-04-07T12:41:54.168Z,12.98
2016-04-07T12:42:54.109Z,13.05
2016-04-07T12:43:54.081Z,13
2016-04-07T12:44:54.021Z,13.03
2016-04-07T12:45:53.976Z,13
2016-04-07T12:46:53.932Z,13
2016-04-07T12:47:53.856Z,12.98
2016-04-07T12:48:53.812Z,12.97
2016-04-07T12:49:53.752Z,12.91
2016-04-07T12:50:53.724Z,12.87
2016-04-07T12:51:53.664Z,12.95
2016-04-07T12:52:53.604Z,12.97
2016-04-07T12:53:53.561Z,12.87
2016-04-07T12:54:53.360Z,12.87
2016-04-07T12:55:53.456Z,12.87
2016-04-07T12:56:53.400Z,12.87
2016-04-07T12:57:53.402Z,12.9
2016-04-07T12:58:53.311Z,12.78
2016-04-07T12:59:53.266Z,12.87
2016-04-07T13:00:53.191Z,12.73
2016-04-07T13:01:53.163Z,12.73
2016-04-07T13:02:53.103Z,12.76
2016-04-07T13:03:53.059Z,12.76
2016-04-07T13:04:52.999Z,12.76
2016-04-07T13:05:52.971Z,12.65
2016-04-07T13:06:52.910Z,12.64
2016-04-07T13:07:52.851Z,12.6
2016-04-07T13:08:52.776Z,12.58
2016-04-07T13:09:52.731Z,12.65